Terminal Aerodrome Forecast
Issued by NWS

Home | Current Version | Previous Version | Text Only | Print | Product List | Glossary On
Versions: 1 2 3 4 5 6 7 8 9 10 11 12 13
000
FTUS45 KLKN 241739
TAFTPH
TAF
KTPH 241739Z 2418/2518 14010KT P6SM FEW150 BKN200
     FM242100 18016G24KT P6SM SCT090 BKN150
     FM250500 01009G17KT P6SM -RA BKN040 OVC070
     FM251000 35010KT P6SM BKN035 BKN180=

USA.gov is the U.S. government's official web portal to all federal, state and local government web resources and services.